Time;durP1;ratioP1;P1;durP2;ratioP2;P2;SDS_P1;SDS_P2;PMS_P1;PMS_P2;Temp;Humidity;BMP_temperature;BMP_pressure;BME280_temperature;BME280_humidity;BME280_pressure;Samples;Min_cycle;Max_cycle;Signal;HPM_P1;HPM_P2
2021/12/31 00:00:49;;;;;;;;;;;13.60;99.90;;;;;;4970678;28;20061;-72
2021/12/31 00:03:16;;;;;;;;;;;13.60;99.90;;;;;;4970795;28;20162;-72
2021/12/31 00:05:43;;;;;;;;;;;13.60;99.90;;;;;;4986879;28;20061;-72
2021/12/31 00:08:10;;;;;;;;;;;13.60;99.90;;;;;;4970423;28;20076;-72
2021/12/31 00:10:38;;;;;;;;;;;13.60;99.90;;;;;;4970861;28;20099;-72
2021/12/31 00:13:06;;;;;;;;;;;13.60;99.90;;;;;;4971149;28;20080;-72
2021/12/31 00:15:34;;;;;;;;;;;13.60;99.90;;;;;;4985358;28;20089;-72
2021/12/31 00:18:01;;;;;;;;;;;13.60;99.90;;;;;;4969716;28;20074;-72
2021/12/31 00:20:29;;;;;;;;;;;13.60;99.90;;;;;;4970749;28;20109;-72
2021/12/31 00:25:40;;;;;;;;;;;13.60;99.90;;;;;;4968871;28;20049;-72
2021/12/31 00:28:08;;;;;;;;;;;13.50;99.90;;;;;;4969747;28;20060;-72
2021/12/31 00:30:37;;;;;;;;;;;13.60;99.90;;;;;;4970051;28;20064;-72
2021/12/31 00:33:04;;;;;;;;;;;13.60;99.90;;;;;;4970026;28;21139;-73
2021/12/31 00:35:32;;;;;;;;;;;13.60;99.90;;;;;;4970449;28;20088;-71
2021/12/31 00:37:59;;;;;;;;;;;13.70;99.90;;;;;;4969253;28;20192;-72
2021/12/31 00:40:27;;;;;;;;;;;13.60;99.90;;;;;;4971144;28;20060;-72
2021/12/31 00:42:54;;;;;;;;;;;13.60;99.90;;;;;;4969973;28;21090;-72
2021/12/31 00:45:22;;;;;;;;;;;13.70;99.90;;;;;;4969503;28;20086;-72
2021/12/31 00:47:51;;;;;;;;;;;13.60;99.90;;;;;;4969228;28;20061;-72
2021/12/31 00:50:18;;;;;;;;;;;13.70;99.90;;;;;;4970743;28;20069;-72
2021/12/31 00:52:46;;;;;;;;;;;13.70;99.90;;;;;;4969860;28;20060;-72
2021/12/31 00:55:13;;;;;;;;;;;13.70;99.90;;;;;;4970527;28;20060;-72
2021/12/31 00:57:41;;;;;;;;;;;13.70;99.90;;;;;;4969262;28;20091;-73
2021/12/31 01:00:09;;;;;;;;;;;13.60;99.90;;;;;;4970348;28;20289;-72
2021/12/31 01:02:36;;;;;;;;;;;13.70;99.90;;;;;;4969545;28;20051;-72
2021/12/31 01:05:05;;;;;;;;;;;13.70;99.90;;;;;;4969758;28;20060;-71
2021/12/31 01:07:32;;;;;;;;;;;13.70;99.90;;;;;;4968985;28;20052;-73
2021/12/31 01:10:00;;;;;;;;;;;13.60;99.90;;;;;;4986456;28;20157;-72
2021/12/31 01:12:27;;;;;;;;;;;13.60;99.90;;;;;;4969316;28;20214;-72
2021/12/31 01:14:58;;;;;;;;;;;13.60;99.90;;;;;;4969453;28;20274;-72
2021/12/31 01:17:42;;;;;;;;;;;13.70;99.90;;;;;;4968774;28;20066;-72
2021/12/31 01:20:11;;;;;;;;;;;13.70;99.90;;;;;;4968689;28;20058;-71
2021/12/31 01:22:38;;;;;;;;;;;13.70;99.90;;;;;;4969516;28;20060;-71
2021/12/31 01:25:06;;;;;;;;;;;13.70;99.90;;;;;;4968817;28;20087;-72
2021/12/31 01:27:33;;;;;;;;;;;13.70;99.90;;;;;;4969703;28;20162;-72
2021/12/31 01:30:00;;;;;;;;;;;13.70;99.90;;;;;;4969221;28;20171;-71
2021/12/31 01:32:30;;;;;;;;;;;13.70;99.90;;;;;;4969907;28;20091;-72
2021/12/31 01:34:57;;;;;;;;;;;13.70;99.90;;;;;;4969547;28;20135;-70
2021/12/31 01:37:26;;;;;;;;;;;13.70;99.90;;;;;;4968474;28;20154;-72
2021/12/31 01:39:53;;;;;;;;;;;13.70;99.90;;;;;;4968598;28;20069;-72
2021/12/31 01:42:27;;;;;;;;;;;13.70;99.90;;;;;;4968989;28;21141;-72
2021/12/31 01:44:57;;;;;;;;;;;13.70;99.90;;;;;;4968451;28;20067;-71
2021/12/31 01:47:34;;;;;;;;;;;13.80;99.90;;;;;;4968314;28;20153;-71
2021/12/31 01:50:05;;;;;;;;;;;13.80;99.90;;;;;;4968738;28;20066;-71
2021/12/31 01:52:34;;;;;;;;;;;13.80;99.90;;;;;;4969012;28;20151;-71
2021/12/31 01:55:01;;;;;;;;;;;13.80;99.90;;;;;;4985642;28;20067;-71
2021/12/31 01:57:30;;;;;;;;;;;13.80;99.90;;;;;;4968791;28;20084;-72
2021/12/31 01:59:57;;;;;;;;;;;13.80;99.90;;;;;;4968064;28;20069;-72
2021/12/31 02:02:24;;;;;;;;;;;13.70;99.90;;;;;;4971671;28;20162;-71
2021/12/31 02:04:52;;;;;;;;;;;13.80;99.90;;;;;;4972665;28;20060;-71
2021/12/31 02:07:19;;;;;;;;;;;13.90;99.90;;;;;;4973164;28;20398;-71
2021/12/31 02:09:51;;;;;;;;;;;13.90;99.90;;;;;;4970810;28;20051;-71
2021/12/31 02:12:19;;;;;;;;;;;13.90;99.90;;;;;;4989154;28;20080;-71
2021/12/31 02:14:46;;;;;;;;;;;13.90;99.90;;;;;;4973318;28;20061;-72
2021/12/31 02:17:13;;;;;;;;;;;13.90;99.90;;;;;;4971956;28;20165;-71
2021/12/31 02:19:43;;;;;;;;;;;13.90;99.90;;;;;;4972168;28;20067;-72
2021/12/31 02:22:12;;;;;;;;;;;13.90;99.90;;;;;;4972237;28;20065;-72
2021/12/31 02:24:39;;;;;;;;;;;13.90;99.90;;;;;;4989557;28;21098;-71
2021/12/31 02:27:06;;;;;;;;;;;13.90;99.90;;;;;;4972227;28;20250;-71
2021/12/31 02:29:33;;;;;;;;;;;13.90;99.90;;;;;;4972597;28;21129;-71
2021/12/31 02:32:01;;;;;;;;;;;13.90;99.90;;;;;;4972282;28;20079;-72
2021/12/31 02:34:28;;;;;;;;;;;14.00;99.90;;;;;;4972695;28;20074;-71
2021/12/31 02:36:55;;;;;;;;;;;13.90;99.90;;;;;;4972441;28;21178;-72
2021/12/31 02:39:23;;;;;;;;;;;13.90;99.90;;;;;;4971866;28;20114;-71
2021/12/31 02:41:51;;;;;;;;;;;13.90;99.90;;;;;;4971913;28;20059;-72
2021/12/31 02:44:18;;;;;;;;;;;14.00;99.90;;;;;;4987717;28;20067;-72
2021/12/31 02:46:45;;;;;;;;;;;14.00;99.90;;;;;;4972368;28;20088;-71
2021/12/31 02:49:12;;;;;;;;;;;14.00;99.90;;;;;;4987939;28;20061;-71
2021/12/31 02:51:39;;;;;;;;;;;13.90;99.90;;;;;;4972263;28;20069;-71
2021/12/31 02:54:07;;;;;;;;;;;13.90;99.90;;;;;;4972150;28;21110;-71
2021/12/31 02:56:36;;;;;;;;;;;13.90;99.90;;;;;;4971229;28;20078;-71
2021/12/31 02:59:04;;;;;;;;;;;13.90;99.90;;;;;;4971390;28;20076;-71
2021/12/31 03:01:31;;;;;;;;;;;13.90;99.90;;;;;;4971591;28;20088;-70
2021/12/31 03:03:59;;;;;;;;;;;13.90;99.90;;;;;;4971677;28;21201;-70
2021/12/31 03:06:26;;;;;;;;;;;13.90;99.90;;;;;;4972106;28;20083;-70
2021/12/31 03:08:53;;;;;;;;;;;13.90;99.90;;;;;;4970909;28;20086;-71
2021/12/31 03:11:21;;;;;;;;;;;13.90;99.90;;;;;;4971911;28;20059;-70
2021/12/31 03:13:52;;;;;;;;;;;13.90;99.90;;;;;;4988598;28;20062;-70
2021/12/31 03:16:20;;;;;;;;;;;13.90;99.90;;;;;;4997818;22;20191;-70
2021/12/31 03:18:47;;;;;;;;;;;13.90;99.90;;;;;;4989424;28;20253;-70
2021/12/31 03:21:21;;;;;;;;;;;13.90;99.90;;;;;;4990628;28;20067;-69
2021/12/31 03:23:48;;;;;;;;;;;13.90;99.90;;;;;;4991015;28;20075;-70
2021/12/31 03:26:15;;;;;;;;;;;13.80;99.90;;;;;;4994518;28;20060;-70
2021/12/31 03:28:43;;;;;;;;;;;13.80;99.90;;;;;;5010315;28;20153;-70
2021/12/31 03:31:11;;;;;;;;;;;13.80;99.90;;;;;;5010501;28;20068;-70
2021/12/31 03:33:39;;;;;;;;;;;13.80;99.90;;;;;;5010420;28;21107;-70
2021/12/31 03:36:06;;;;;;;;;;;13.80;99.90;;;;;;5010138;28;20148;-69
2021/12/31 03:38:33;;;;;;;;;;;13.80;99.90;;;;;;5009818;28;20153;-70
2021/12/31 03:41:00;;;;;;;;;;;13.70;99.90;;;;;;5010342;28;20068;-70
2021/12/31 03:43:27;;;;;;;;;;;13.70;99.90;;;;;;5009786;28;20150;-68
2021/12/31 03:45:54;;;;;;;;;;;13.70;99.90;;;;;;5010357;28;20090;-70
2021/12/31 03:48:23;;;;;;;;;;;13.70;99.90;;;;;;5009758;28;21075;-70
2021/12/31 03:50:50;;;;;;;;;;;13.70;99.90;;;;;;5010387;28;20153;-70
2021/12/31 03:53:17;;;;;;;;;;;13.60;99.90;;;;;;5009958;28;21174;-69
2021/12/31 03:55:44;;;;;;;;;;;13.60;99.90;;;;;;5009307;28;20050;-67
2021/12/31 03:58:11;;;;;;;;;;;13.50;99.90;;;;;;5009496;28;20051;-70
2021/12/31 04:00:39;;;;;;;;;;;13.50;99.90;;;;;;5010608;28;20051;-69
2021/12/31 04:03:07;;;;;;;;;;;13.40;99.90;;;;;;5010360;28;20075;-69
2021/12/31 04:05:35;;;;;;;;;;;13.30;99.90;;;;;;5010114;28;21068;-70
2021/12/31 04:08:02;;;;;;;;;;;13.30;99.90;;;;;;5009518;28;20153;-70
2021/12/31 04:10:30;;;;;;;;;;;13.30;99.90;;;;;;5009742;28;20052;-69
2021/12/31 04:12:57;;;;;;;;;;;13.20;99.90;;;;;;5010244;28;20074;-70
2021/12/31 04:15:24;;;;;;;;;;;13.20;99.90;;;;;;5010039;28;20065;-69
2021/12/31 04:17:51;;;;;;;;;;;13.20;99.90;;;;;;5008565;28;20140;-69
2021/12/31 04:20:24;;;;;;;;;;;13.30;99.90;;;;;;5009787;28;20099;-70
2021/12/31 04:22:55;;;;;;;;;;;13.20;99.90;;;;;;5009277;28;21119;-70
2021/12/31 04:25:22;;;;;;;;;;;13.10;99.90;;;;;;5009680;28;20051;-70
2021/12/31 04:27:50;;;;;;;;;;;13.10;99.90;;;;;;5009053;28;21052;-69
2021/12/31 04:30:18;;;;;;;;;;;13.10;99.90;;;;;;5010028;28;20201;-70
2021/12/31 04:32:45;;;;;;;;;;;13.10;99.90;;;;;;5009604;28;20090;-70
2021/12/31 04:35:13;;;;;;;;;;;13.20;99.90;;;;;;5009842;28;21113;-69
2021/12/31 04:37:41;;;;;;;;;;;13.30;99.90;;;;;;5009480;28;21046;-68
2021/12/31 04:40:11;;;;;;;;;;;13.30;99.90;;;;;;5009524;28;20068;-70
2021/12/31 04:42:40;;;;;;;;;;;13.30;99.90;;;;;;5009634;28;20058;-69
2021/12/31 04:45:07;;;;;;;;;;;13.30;99.90;;;;;;5008187;28;20073;-70
2021/12/31 04:47:34;;;;;;;;;;;13.20;99.90;;;;;;5009191;28;21056;-69
2021/12/31 04:50:01;;;;;;;;;;;13.20;99.90;;;;;;5008875;28;21152;-70
2021/12/31 04:52:29;;;;;;;;;;;13.20;99.90;;;;;;5009467;28;21105;-70
2021/12/31 04:54:56;;;;;;;;;;;13.20;99.90;;;;;;5009273;28;20059;-70
2021/12/31 04:57:26;;;;;;;;;;;13.10;99.90;;;;;;5009371;28;21099;-69
2021/12/31 04:59:53;;;;;;;;;;;13.10;99.90;;;;;;5008142;28;20207;-70
2021/12/31 05:02:20;;;;;;;;;;;13.10;99.90;;;;;;5009365;28;20115;-70
2021/12/31 05:04:47;;;;;;;;;;;13.10;99.90;;;;;;5009470;28;20068;-69
2021/12/31 05:07:14;;;;;;;;;;;13.00;99.90;;;;;;5008803;28;20073;-70
2021/12/31 05:09:41;;;;;;;;;;;13.10;99.90;;;;;;5008530;28;21031;-70
2021/12/31 05:12:14;;;;;;;;;;;13.10;99.90;;;;;;5009481;28;21103;-69
2021/12/31 05:14:42;;;;;;;;;;;13.00;99.90;;;;;;5009250;28;20165;-70
2021/12/31 05:17:09;;;;;;;;;;;13.00;99.90;;;;;;5008189;28;21225;-70
2021/12/31 05:19:37;;;;;;;;;;;12.90;99.90;;;;;;5008182;28;20076;-68
2021/12/31 05:22:04;;;;;;;;;;;12.90;99.90;;;;;;5008931;28;20060;-70
2021/12/31 05:24:31;;;;;;;;;;;12.80;99.90;;;;;;5009024;28;20986;-69
2021/12/31 05:26:59;;;;;;;;;;;12.80;99.90;;;;;;5008134;28;20104;-69
2021/12/31 05:29:26;;;;;;;;;;;12.80;99.90;;;;;;5008485;28;20067;-70
2021/12/31 05:31:55;;;;;;;;;;;12.80;99.90;;;;;;5009529;28;20051;-70
2021/12/31 05:34:22;;;;;;;;;;;12.80;99.90;;;;;;5008642;28;20051;-70
2021/12/31 05:36:49;;;;;;;;;;;12.80;99.90;;;;;;5007574;28;20092;-69
2021/12/31 05:39:16;;;;;;;;;;;12.90;99.90;;;;;;5008962;28;20145;-70
2021/12/31 05:41:43;;;;;;;;;;;12.80;99.90;;;;;;5008753;28;21092;-70
2021/12/31 05:44:10;;;;;;;;;;;12.70;99.90;;;;;;5007996;28;20161;-69
2021/12/31 05:46:39;;;;;;;;;;;12.70;99.90;;;;;;5008296;28;20157;-69
2021/12/31 05:49:08;;;;;;;;;;;12.60;99.90;;;;;;5007798;28;20058;-70
2021/12/31 05:51:35;;;;;;;;;;;12.60;99.90;;;;;;5008141;28;20060;-69
2021/12/31 05:54:03;;;;;;;;;;;12.50;99.90;;;;;;5009498;28;20058;-69
2021/12/31 05:56:30;;;;;;;;;;;12.50;99.90;;;;;;5008396;28;20131;-70
2021/12/31 05:58:57;;;;;;;;;;;12.40;99.90;;;;;;5008310;28;20222;-70
2021/12/31 06:01:24;;;;;;;;;;;12.40;99.90;;;;;;5003981;28;21213;-70
2021/12/31 06:03:51;;;;;;;;;;;12.30;99.90;;;;;;4998053;28;20105;-70
2021/12/31 06:06:20;;;;;;;;;;;12.20;99.90;;;;;;4991232;28;20303;-70
2021/12/31 06:08:47;;;;;;;;;;;12.10;99.90;;;;;;5007973;28;20065;-70
2021/12/31 06:11:14;;;;;;;;;;;12.00;99.90;;;;;;5001035;28;20082;-70
2021/12/31 06:13:42;;;;;;;;;;;12.00;99.90;;;;;;4988791;28;20051;-70
2021/12/31 06:16:10;;;;;;;;;;;11.90;99.90;;;;;;4987626;28;20212;-69
2021/12/31 06:18:39;;;;;;;;;;;11.90;99.90;;;;;;4988537;28;20059;-70
2021/12/31 06:21:07;;;;;;;;;;;11.80;99.90;;;;;;5006765;28;20052;-69
2021/12/31 06:23:36;;;;;;;;;;;11.70;99.90;;;;;;5008298;28;21060;-70
2021/12/31 06:26:03;;;;;;;;;;;11.70;99.90;;;;;;5007947;28;20064;-69
2021/12/31 06:28:30;;;;;;;;;;;11.70;99.90;;;;;;5008271;28;20051;-69
2021/12/31 06:30:57;;;;;;;;;;;11.70;99.90;;;;;;5008925;28;20060;-69
2021/12/31 06:33:24;;;;;;;;;;;11.70;99.90;;;;;;5007803;28;21188;-69
2021/12/31 06:35:51;;;;;;;;;;;11.70;99.90;;;;;;5009016;28;20156;-69
2021/12/31 06:38:19;;;;;;;;;;;11.70;99.90;;;;;;4989210;28;20068;-70
2021/12/31 06:40:47;;;;;;;;;;;11.70;99.90;;;;;;4988837;28;20076;-69
2021/12/31 06:43:14;;;;;;;;;;;11.60;99.90;;;;;;4988112;28;20071;-68
2021/12/31 06:45:41;;;;;;;;;;;11.60;99.90;;;;;;4989114;28;21100;-68
2021/12/31 06:48:08;;;;;;;;;;;11.60;99.90;;;;;;4990338;28;20069;-69
2021/12/31 06:50:35;;;;;;;;;;;11.60;99.90;;;;;;4991798;28;20075;-69
2021/12/31 06:53:03;;;;;;;;;;;11.60;99.90;;;;;;4992008;28;20060;-69
2021/12/31 06:55:30;;;;;;;;;;;11.60;99.90;;;;;;4991492;28;20075;-69
2021/12/31 06:57:59;;;;;;;;;;;11.60;99.90;;;;;;4990109;28;21180;-69
2021/12/31 07:00:26;;;;;;;;;;;11.60;99.90;;;;;;4992051;28;20060;-68
2021/12/31 07:03:04;;;;;;;;;;;11.70;99.90;;;;;;4991543;28;20060;-69
2021/12/31 07:05:31;;;;;;;;;;;11.70;99.90;;;;;;4991862;28;21186;-70
2021/12/31 07:07:58;;;;;;;;;;;11.70;99.90;;;;;;4991408;28;20154;-70
2021/12/31 07:10:25;;;;;;;;;;;11.70;99.90;;;;;;4993732;28;20132;-69
2021/12/31 07:12:56;;;;;;;;;;;11.80;99.90;;;;;;5011664;28;20165;-70
2021/12/31 07:15:25;;;;;;;;;;;11.70;99.90;;;;;;5011590;28;20099;-69
2021/12/31 07:17:52;;;;;;;;;;;11.70;99.90;;;;;;5010512;28;20230;-69
2021/12/31 07:20:19;;;;;;;;;;;11.80;99.90;;;;;;5011251;28;20058;-69
2021/12/31 07:22:47;;;;;;;;;;;11.70;99.90;;;;;;5010579;28;20059;-69
2021/12/31 07:25:14;;;;;;;;;;;11.80;99.90;;;;;;5011299;28;20067;-69
2021/12/31 07:27:41;;;;;;;;;;;11.80;99.90;;;;;;5010681;28;20060;-68
2021/12/31 07:30:09;;;;;;;;;;;11.90;99.90;;;;;;5011063;28;20051;-69
2021/12/31 07:32:38;;;;;;;;;;;12.00;99.90;;;;;;5010606;28;20068;-69
2021/12/31 07:35:05;;;;;;;;;;;12.00;99.90;;;;;;5010694;28;20460;-70
2021/12/31 07:37:33;;;;;;;;;;;12.00;99.90;;;;;;5010123;28;20082;-69
2021/12/31 07:40:03;;;;;;;;;;;12.00;99.90;;;;;;5010660;28;20068;-70
2021/12/31 07:42:30;;;;;;;;;;;12.00;99.90;;;;;;5010713;28;20259;-69
2021/12/31 07:44:57;;;;;;;;;;;12.10;99.90;;;;;;5009231;28;20160;-69
2021/12/31 07:47:24;;;;;;;;;;;12.10;99.90;;;;;;5009644;28;20051;-70
2021/12/31 07:49:53;;;;;;;;;;;12.00;99.90;;;;;;5010630;28;20086;-69
2021/12/31 07:52:20;;;;;;;;;;;12.00;99.90;;;;;;5010658;28;21017;-70
2021/12/31 07:54:48;;;;;;;;;;;12.10;99.90;;;;;;5010839;28;21119;-68
2021/12/31 07:57:15;;;;;;;;;;;12.20;99.90;;;;;;5010418;28;20059;-69
2021/12/31 07:59:42;;;;;;;;;;;12.20;99.90;;;;;;5007997;28;20051;-70
2021/12/31 08:02:09;;;;;;;;;;;12.20;99.90;;;;;;5010373;28;20059;-69
2021/12/31 08:04:36;;;;;;;;;;;12.30;99.90;;;;;;5010583;28;20051;-69
2021/12/31 08:07:04;;;;;;;;;;;12.30;99.90;;;;;;5009764;28;20060;-69
2021/12/31 08:09:32;;;;;;;;;;;12.40;99.90;;;;;;5010268;28;20067;-69
2021/12/31 08:11:59;;;;;;;;;;;12.40;99.90;;;;;;4994601;28;20090;-69
2021/12/31 08:14:26;;;;;;;;;;;12.40;99.90;;;;;;4990266;28;20067;-69
2021/12/31 08:16:53;;;;;;;;;;;12.50;99.90;;;;;;4989999;28;21044;-70
2021/12/31 08:19:20;;;;;;;;;;;12.50;99.90;;;;;;4989863;28;20080;-69
2021/12/31 08:21:47;;;;;;;;;;;12.50;99.90;;;;;;4990665;28;20355;-69
2021/12/31 08:24:16;;;;;;;;;;;12.50;99.90;;;;;;4989649;28;20641;-69
2021/12/31 08:26:43;;;;;;;;;;;12.60;99.90;;;;;;4989135;28;20228;-69
2021/12/31 08:29:12;;;;;;;;;;;12.60;99.90;;;;;;4989497;28;20248;-68
2021/12/31 08:31:40;;;;;;;;;;;12.60;99.90;;;;;;4989840;28;20170;-70
2021/12/31 08:34:08;;;;;;;;;;;12.60;99.90;;;;;;4989699;28;20058;-69
2021/12/31 08:36:35;;;;;;;;;;;12.60;99.90;;;;;;4990060;28;21084;-69
2021/12/31 08:39:02;;;;;;;;;;;12.70;99.90;;;;;;4989719;28;21235;-69
2021/12/31 08:41:30;;;;;;;;;;;12.70;99.90;;;;;;4989960;28;20052;-69
2021/12/31 08:43:57;;;;;;;;;;;12.70;99.90;;;;;;4989781;28;20067;-70
2021/12/31 08:46:25;;;;;;;;;;;12.60;99.90;;;;;;4990030;28;20051;-69
2021/12/31 08:48:52;;;;;;;;;;;12.70;99.90;;;;;;4989607;28;20075;-69
2021/12/31 08:51:19;;;;;;;;;;;12.70;99.90;;;;;;4989425;28;20060;-69
2021/12/31 08:53:46;;;;;;;;;;;12.80;99.90;;;;;;4988828;28;20069;-69
2021/12/31 08:56:13;;;;;;;;;;;12.80;99.90;;;;;;4989390;28;20067;-70
2021/12/31 08:58:42;;;;;;;;;;;12.90;99.90;;;;;;4989334;28;20140;-70
2021/12/31 09:01:09;;;;;;;;;;;12.90;99.90;;;;;;4989072;28;20141;-70
2021/12/31 09:03:36;;;;;;;;;;;12.90;99.90;;;;;;4988950;28;21155;-69
2021/12/31 09:06:03;;;;;;;;;;;13.00;99.90;;;;;;4988689;28;20060;-69
2021/12/31 09:08:31;;;;;;;;;;;13.00;99.90;;;;;;4988561;28;20219;-70
2021/12/31 09:10:58;;;;;;;;;;;13.00;99.90;;;;;;4997178;28;20100;-70
2021/12/31 09:13:26;;;;;;;;;;;13.10;99.90;;;;;;5009044;28;20200;-69
2021/12/31 09:15:55;;;;;;;;;;;13.10;99.90;;;;;;5008771;28;21230;-69
2021/12/31 09:18:23;;;;;;;;;;;13.10;99.90;;;;;;4995646;22;20073;-71
2021/12/31 09:20:52;;;;;;;;;;;13.20;99.90;;;;;;4969387;28;20085;-69
2021/12/31 09:23:19;;;;;;;;;;;13.20;99.90;;;;;;4969026;28;20154;-69
2021/12/31 09:25:46;;;;;;;;;;;13.20;99.90;;;;;;4969686;28;21153;-69
2021/12/31 09:28:13;;;;;;;;;;;13.30;99.90;;;;;;4968507;28;20067;-69
2021/12/31 09:30:41;;;;;;;;;;;13.30;99.90;;;;;;4969739;28;20050;-69
2021/12/31 09:33:09;;;;;;;;;;;13.40;99.90;;;;;;4969645;28;21035;-69
2021/12/31 09:35:36;;;;;;;;;;;13.50;99.90;;;;;;4970035;28;20087;-69
2021/12/31 09:38:08;;;;;;;;;;;13.60;99.90;;;;;;4968850;28;20124;-69
2021/12/31 09:40:35;;;;;;;;;;;13.60;99.90;;;;;;4969229;28;20212;-69
2021/12/31 09:43:04;;;;;;;;;;;13.70;99.90;;;;;;4969204;28;20069;-69
2021/12/31 09:45:33;;;;;;;;;;;13.80;99.90;;;;;;4969405;28;20084;-69
2021/12/31 09:48:00;;;;;;;;;;;13.80;99.90;;;;;;4968675;28;20064;-69
2021/12/31 09:50:29;;;;;;;;;;;13.80;99.90;;;;;;4969477;28;21124;-69
2021/12/31 09:52:56;;;;;;;;;;;13.80;99.90;;;;;;4969157;28;21092;-69
2021/12/31 09:55:36;;;;;;;;;;;13.90;99.90;;;;;;4968856;28;20071;-69
2021/12/31 09:58:03;;;;;;;;;;;14.00;99.90;;;;;;4968276;28;20061;-69
2021/12/31 10:00:31;;;;;;;;;;;14.00;99.90;;;;;;4968963;28;21181;-69
2021/12/31 10:03:11;;;;;;;;;;;14.10;99.90;;;;;;4969644;28;20052;-69
2021/12/31 10:05:42;;;;;;;;;;;14.20;99.90;;;;;;4968608;28;20068;-69
2021/12/31 10:08:16;;;;;;;;;;;14.30;99.90;;;;;;4967951;28;20091;-69
2021/12/31 10:10:43;;;;;;;;;;;14.40;99.90;;;;;;4974297;28;20141;-69
2021/12/31 10:13:11;;;;;;;;;;;14.40;99.90;;;;;;4988617;28;20104;-69
2021/12/31 10:15:39;;;;;;;;;;;14.40;99.90;;;;;;4988413;28;20132;-69
2021/12/31 10:18:12;;;;;;;;;;;14.50;99.90;;;;;;4986885;28;20091;-69
2021/12/31 10:20:50;;;;;;;;;;;14.50;99.90;;;;;;4987736;28;21005;-69
2021/12/31 10:23:19;;;;;;;;;;;14.50;99.90;;;;;;4991159;28;20060;-69
2021/12/31 10:25:46;;;;;;;;;;;14.50;99.90;;;;;;4992217;28;21195;-69
2021/12/31 10:28:14;;;;;;;;;;;14.60;99.90;;;;;;4991193;28;20141;-69
2021/12/31 10:30:42;;;;;;;;;;;14.80;99.90;;;;;;4991622;28;20348;-69
2021/12/31 10:33:09;;;;;;;;;;;14.90;99.90;;;;;;4991786;28;21120;-69
2021/12/31 10:35:40;;;;;;;;;;;14.90;99.90;;;;;;4992547;28;21123;-69
2021/12/31 10:38:11;;;;;;;;;;;14.90;99.90;;;;;;4991400;28;21101;-69
2021/12/31 10:40:40;;;;;;;;;;;14.90;99.90;;;;;;4991665;28;20073;-69
2021/12/31 10:43:12;;;;;;;;;;;14.80;99.90;;;;;;4991272;28;20059;-68
2021/12/31 10:45:39;;;;;;;;;;;14.80;99.90;;;;;;5008852;28;20059;-69
2021/12/31 10:48:07;;;;;;;;;;;14.70;99.90;;;;;;4990945;28;20060;-69
2021/12/31 10:50:35;;;;;;;;;;;14.70;99.90;;;;;;4991179;28;20056;-69
2021/12/31 10:53:08;;;;;;;;;;;14.70;99.90;;;;;;4991916;28;20051;-69
2021/12/31 10:55:40;;;;;;;;;;;14.70;99.90;;;;;;4991563;28;20141;-68
2021/12/31 10:58:10;;;;;;;;;;;14.60;99.90;;;;;;4990817;28;20198;-69
2021/12/31 11:00:38;;;;;;;;;;;14.60;99.90;;;;;;4991780;28;20051;-69
2021/12/31 11:03:06;;;;;;;;;;;14.60;99.90;;;;;;4990957;28;20067;-69
2021/12/31 11:05:34;;;;;;;;;;;14.60;99.90;;;;;;4991937;28;20137;-69
2021/12/31 11:08:01;;;;;;;;;;;14.50;99.90;;;;;;4990802;28;20060;-69
2021/12/31 11:10:29;;;;;;;;;;;14.50;99.90;;;;;;4987696;28;20095;-69
2021/12/31 11:12:58;;;;;;;;;;;14.40;99.90;;;;;;4987727;28;21030;-69
2021/12/31 11:15:25;;;;;;;;;;;14.40;99.90;;;;;;4988686;28;20107;-69
2021/12/31 11:17:53;;;;;;;;;;;14.40;99.90;;;;;;4986616;28;20093;-69
2021/12/31 11:20:21;;;;;;;;;;;14.40;99.90;;;;;;4988457;28;20118;-69
2021/12/31 11:22:48;;;;;;;;;;;14.40;99.90;;;;;;4988025;28;20158;-69
2021/12/31 11:25:25;;;;;;;;;;;14.40;99.90;;;;;;4988551;28;20052;-69
2021/12/31 11:27:53;;;;;;;;;;;14.40;99.90;;;;;;4987572;28;20115;-69
2021/12/31 11:30:33;;;;;;;;;;;14.50;99.90;;;;;;4988021;28;20990;-69
2021/12/31 11:33:01;;;;;;;;;;;14.50;99.90;;;;;;4986849;28;20060;-69
2021/12/31 11:35:33;;;;;;;;;;;14.50;99.90;;;;;;4986884;28;20069;-69
2021/12/31 11:38:01;;;;;;;;;;;14.60;99.90;;;;;;4987526;28;20146;-69
2021/12/31 11:40:29;;;;;;;;;;;15.10;99.90;;;;;;4987613;28;20158;-69
2021/12/31 11:43:15;;;;;;;;;;;15.30;99.90;;;;;;4988025;28;20060;-69
2021/12/31 11:45:44;;;;;;;;;;;15.40;99.90;;;;;;4974355;28;20060;-69
2021/12/31 11:48:30;;;;;;;;;;;15.30;99.90;;;;;;4990032;28;21035;-70
2021/12/31 11:51:04;;;;;;;;;;;15.20;99.90;;;;;;4971977;28;21177;-71
2021/12/31 11:53:31;;;;;;;;;;;15.00;99.90;;;;;;4986656;28;20067;-71
2021/12/31 11:55:58;;;;;;;;;;;14.90;99.90;;;;;;4987620;28;20163;-70
2021/12/31 11:58:39;;;;;;;;;;;14.80;99.90;;;;;;4986914;28;21137;-71
2021/12/31 12:01:34;;;;;;;;;;;14.80;99.90;;;;;;4987423;28;20059;-70
2021/12/31 12:04:15;;;;;;;;;;;15.00;99.90;;;;;;4969482;28;20092;-71
2021/12/31 12:06:53;;;;;;;;;;;16.20;99.90;;;;;;4969703;28;20064;-71
2021/12/31 12:09:20;;;;;;;;;;;15.60;99.90;;;;;;4986643;28;21090;-71
2021/12/31 12:12:00;;;;;;;;;;;15.30;99.90;;;;;;4990266;28;20157;-70
2021/12/31 12:14:31;;;;;;;;;;;15.20;99.90;;;;;;4989991;28;20074;-70
2021/12/31 12:16:59;;;;;;;;;;;15.40;99.90;;;;;;4990226;28;20060;-71
2021/12/31 12:19:40;;;;;;;;;;;15.50;99.90;;;;;;4989988;28;20140;-70
2021/12/31 12:22:09;;;;;;;;;;;15.30;99.90;;;;;;4989968;28;21125;-70
2021/12/31 12:24:36;;;;;;;;;;;15.10;99.90;;;;;;4989943;28;20163;-70
2021/12/31 12:27:03;;;;;;;;;;;15.00;99.90;;;;;;4989492;28;20068;-70
2021/12/31 12:29:31;;;;;;;;;;;15.10;99.90;;;;;;4989755;28;20141;-71
2021/12/31 12:32:08;;;;;;;;;;;15.50;99.90;;;;;;4990167;28;20069;-70
2021/12/31 12:34:35;;;;;;;;;;;16.10;99.90;;;;;;4989868;28;20067;-71
2021/12/31 12:37:02;;;;;;;;;;;20.00;99.90;;;;;;4988753;28;20060;-71
2021/12/31 12:39:30;;;;;;;;;;;19.80;99.90;;;;;;4987874;28;20067;-70
2021/12/31 12:41:57;;;;;;;;;;;21.30;99.90;;;;;;4989769;28;20077;-71
2021/12/31 12:44:25;;;;;;;;;;;23.10;99.90;;;;;;4989178;28;20060;-71
2021/12/31 12:46:55;;;;;;;;;;;20.90;99.90;;;;;;4989330;28;21246;-71
2021/12/31 12:49:24;;;;;;;;;;;22.20;99.90;;;;;;4988766;28;20090;-71
2021/12/31 12:51:51;;;;;;;;;;;23.10;99.90;;;;;;4991044;28;21035;-71
2021/12/31 12:54:21;;;;;;;;;;;21.10;99.90;;;;;;4989791;28;21136;-71
2021/12/31 12:56:50;;;;;;;;;;;18.50;99.90;;;;;;4989785;28;20051;-71
2021/12/31 12:59:20;;;;;;;;;;;18.30;99.90;;;;;;4988888;28;20086;-71
2021/12/31 13:01:47;;;;;;;;;;;18.20;99.90;;;;;;4989252;28;20076;-71
2021/12/31 13:04:15;;;;;;;;;;;21.60;99.90;;;;;;4989642;28;21034;-71
2021/12/31 13:06:43;;;;;;;;;;;23.90;99.90;;;;;;4989540;28;20141;-71
2021/12/31 13:09:13;;;;;;;;;;;24.60;99.90;;;;;;4989233;28;20061;-71
2021/12/31 13:11:41;;;;;;;;;;;22.60;99.90;;;;;;4977029;28;20088;-71
2021/12/31 13:14:14;;;;;;;;;;;20.20;99.90;;;;;;4969342;28;20051;-71
2021/12/31 13:16:41;;;;;;;;;;;19.70;99.90;;;;;;4968292;28;20062;-71
2021/12/31 13:19:10;;;;;;;;;;;18.40;99.90;;;;;;4969509;28;20069;-71
2021/12/31 13:21:38;;;;;;;;;;;17.60;99.90;;;;;;4969615;28;20056;-71
2021/12/31 13:24:05;;;;;;;;;;;17.30;99.90;;;;;;4969489;28;20134;-71
2021/12/31 13:26:34;;;;;;;;;;;18.90;99.90;;;;;;4969630;28;20150;-71
2021/12/31 13:29:04;;;;;;;;;;;21.70;99.90;;;;;;4967726;28;21362;-71
2021/12/31 13:31:37;;;;;;;;;;;22.40;99.90;;;;;;4970183;28;21185;-71
2021/12/31 13:34:14;;;;;;;;;;;20.40;99.90;;;;;;4969566;28;20068;-71
2021/12/31 13:36:45;;;;;;;;;;;18.30;99.90;;;;;;4969523;28;20163;-71
2021/12/31 13:39:13;;;;;;;;;;;17.30;99.90;;;;;;4969056;28;20078;-71
2021/12/31 13:41:46;;;;;;;;;;;17.80;99.90;;;;;;4968589;28;20068;-71
2021/12/31 13:44:15;;;;;;;;;;;19.80;99.90;;;;;;4969048;28;20075;-71
2021/12/31 13:46:45;;;;;;;;;;;20.60;99.90;;;;;;4969724;28;20069;-71
2021/12/31 13:49:13;;;;;;;;;;;19.80;99.90;;;;;;4968913;28;20170;-71
2021/12/31 13:51:41;;;;;;;;;;;20.10;99.90;;;;;;4969307;28;20091;-71
2021/12/31 13:54:09;;;;;;;;;;;21.80;99.90;;;;;;4969242;28;20060;-71
2021/12/31 13:56:38;;;;;;;;;;;22.40;99.90;;;;;;4969093;28;20140;-70
2021/12/31 13:59:25;;;;;;;;;;;22.40;99.90;;;;;;4973124;28;20076;-71
2021/12/31 14:02:11;;;;;;;;;;;20.70;99.90;;;;;;4972452;28;21144;-70
2021/12/31 14:04:57;;;;;;;;;;;18.40;99.90;;;;;;4973043;28;20196;-70
2021/12/31 14:07:32;;;;;;;;;;;17.50;99.90;;;;;;4972714;28;20076;-71
2021/12/31 14:10:00;;;;;;;;;;;18.50;99.90;;;;;;4972784;28;20069;-71
2021/12/31 14:12:28;;;;;;;;;;;19.70;99.90;;;;;;4972538;28;20186;-71
2021/12/31 14:14:55;;;;;;;;;;;20.00;99.90;;;;;;4972817;28;20085;-71
2021/12/31 14:17:22;;;;;;;;;;;19.40;99.90;;;;;;4972626;28;20084;-71
2021/12/31 14:19:49;;;;;;;;;;;20.30;99.90;;;;;;4972932;28;20069;-69
2021/12/31 14:22:16;;;;;;;;;;;21.10;99.90;;;;;;4988833;28;20171;-71
2021/12/31 14:24:45;;;;;;;;;;;21.70;99.90;;;;;;4972339;28;20364;-71
2021/12/31 14:27:12;;;;;;;;;;;21.60;99.90;;;;;;4972423;28;21180;-71